Aviation Digital Data Service (ADDS)

Output produced by METARs form (1305 UTC 07 October 2022)
found at http://aviationweather.gov/metar/data/
 
METAR text: KONP 071255Z AUTO 08003KT 5SM BR OVC007 12/12 A3022 RMK AO2
Conditions at: KONP (NEWPORT , OR, US) observed 1255 UTC 07 October 2022
Temperature: 12.0°C (54°F)
Dewpoint: 12.0°C (54°F) [RH = 100%]
Pressure (altimeter): 30.22 inches Hg (1023.5 mb)
Winds: from the E (80 degrees) at 3 MPH (3 knots; 1.5 m/s)
Visibility: 5 miles ( 8 km)
Ceiling: 700 feet AGL
Clouds: overcast cloud deck at 700 feet AGL
Weather: BR  (mist)

METAR text: KONP 071235Z AUTO 07004KT 5SM BR OVC007 12/12 A3022 RMK AO2
Conditions at: KONP (NEWPORT , OR, US) observed 1235 UTC 07 October 2022
Temperature: 12.0°C (54°F)
Dewpoint: 12.0°C (54°F) [RH = 100%]
Pressure (altimeter): 30.22 inches Hg (1023.5 mb)
Winds: from the ENE (70 degrees) at 5 MPH (4 knots; 2.1 m/s)
Visibility: 5 miles ( 8 km)
Ceiling: 700 feet AGL
Clouds: overcast cloud deck at 700 feet AGL
Weather: BR  (mist)

METAR text: KONP 071215Z AUTO 08003KT 4SM BR OVC007 12/12 A3022 RMK AO2
Conditions at: KONP (NEWPORT , OR, US) observed 1215 UTC 07 October 2022
Temperature: 12.0°C (54°F)
Dewpoint: 12.0°C (54°F) [RH = 100%]
Pressure (altimeter): 30.22 inches Hg (1023.5 mb)
Winds: from the E (80 degrees) at 3 MPH (3 knots; 1.5 m/s)
Visibility: 4 miles ( 6 km)
Ceiling: 700 feet AGL
Clouds: overcast cloud deck at 700 feet AGL
Weather: BR  (mist)

METAR text: KONP 071155Z AUTO 07003KT 4SM BR OVC005 12/12 RMK AO2
Conditions at: KONP (NEWPORT , OR, US) observed 1155 UTC 07 October 2022
Temperature: 12.0°C (54°F)
Dewpoint: 12.0°C (54°F) [RH = 100%]
Pressure (altimeter): missing
Winds: from the ENE (70 degrees) at 3 MPH (3 knots; 1.5 m/s)
Visibility: 4 miles ( 6 km)
Ceiling: 500 feet AGL
Clouds: overcast cloud deck at 500 feet AGL
Weather: BR  (mist)

METAR text: KONP 071135Z AUTO 00000KT 3SM BR OVC005 12/12 A3021 RMK AO2
Conditions at: KONP (NEWPORT , OR, US) observed 1135 UTC 07 October 2022
Temperature: 12.0°C (54°F)
Dewpoint: 12.0°C (54°F) [RH = 100%]
Pressure (altimeter): 30.21 inches Hg (1023.1 mb)
Winds: calm
Visibility: 3 miles ( 5 km)
Ceiling: 500 feet AGL
Clouds: overcast cloud deck at 500 feet AGL
Weather: BR  (mist)

METAR text: KONP 071115Z AUTO 09003KT 2 1/2SM BR OVC005 12/12 A3021 RMK AO2
Conditions at: KONP (NEWPORT , OR, US) observed 1115 UTC 07 October 2022
Temperature: 12.0°C (54°F)
Dewpoint: 12.0°C (54°F) [RH = 100%]
Pressure (altimeter): 30.21 inches Hg (1023.1 mb)
Winds: from the E (90 degrees) at 3 MPH (3 knots; 1.5 m/s)
Visibility: 2.50 miles (4.02 km)
Ceiling: 500 feet AGL
Clouds: overcast cloud deck at 500 feet AGL
Weather: BR  (mist)

Forecast for: KONP (NEWPORT , OR, US)
Text: KONP 071120Z 0712/0812 33004KT 3SM BR OVC004
Forecast period: 1200 to 1900 UTC 07 October 2022
Forecast type: FROM: standard forecast or significant change
Winds: from the NNW (330 degrees) at 5 MPH (4 knots; 2.1 m/s)
Visibility: 3 miles (5 km)
Ceiling: 400 feet AGL
Clouds: overcast cloud deck at 400 feet AGL
Weather: BR  (mist)
Text: FM071900 34010KT 5SM BR OVC006
Forecast period: 1900 UTC 07 October 2022 to 0200 UTC 08 October 2022
Forecast type: FROM: standard forecast or significant change
Winds: from the NNW (340 degrees) at 12 MPH (10 knots; 5.1 m/s)
Visibility: 5 miles (8 km)
Ceiling: 600 feet AGL
Clouds: overcast cloud deck at 600 feet AGL
Weather: BR  (mist)
Text: TEMPO 0721/0801 P6SM NSW SCT006
Forecast period: 2100 UTC 07 October 2022 to 0100 UTC 08 October 2022
Forecast type: TEMPORARY: The following changes expected for less than half the time period
Visibility: 6 or more miles (10+ km)
Ceiling: at least 12,000 feet AGL
Clouds: scattered clouds at 600 feet AGL
Weather: NSW  (no significant weather)
Text: FM080200 03004KT 2SM BR OVC003
Forecast period: 0200 to 1200 UTC 08 October 2022
Forecast type: FROM: standard forecast or significant change
Winds: from the NNE (30 degrees) at 5 MPH (4 knots; 2.1 m/s)
Visibility: 2.00 miles (3.22 km)
Ceiling: 300 feet AGL
Clouds: overcast cloud deck at 300 feet AGL
Weather: BR  (mist)